sensor_id;sensor_type;location;lat;lon;timestamp;P1;durP1;ratioP1;P2;durP2;ratioP2
74972;SDS011;63529;56.320;43.990;2022-11-20T00:00:53;5.72;;;2.47;;
74972;SDS011;63529;56.320;43.990;2022-11-20T00:03:19;3.90;;;1.45;;
74972;SDS011;63529;56.320;43.990;2022-11-20T00:05:46;3.65;;;1.60;;
74972;SDS011;63529;56.320;43.990;2022-11-20T00:08:12;5.93;;;1.77;;
74972;SDS011;63529;56.320;43.990;2022-11-20T00:10:41;4.68;;;1.52;;
74972;SDS011;63529;56.320;43.990;2022-11-20T00:13:07;5.20;;;2.10;;
74972;SDS011;63529;56.320;43.990;2022-11-20T00:15:33;3.55;;;1.77;;
74972;SDS011;63529;56.320;43.990;2022-11-20T00:17:59;5.18;;;1.60;;
74972;SDS011;63529;56.320;43.990;2022-11-20T00:20:25;4.50;;;1.33;;
74972;SDS011;63529;56.320;43.990;2022-11-20T00:22:51;3.05;;;1.55;;
74972;SDS011;63529;56.320;43.990;2022-11-20T00:25:17;5.90;;;2.15;;
74972;SDS011;63529;56.320;43.990;2022-11-20T00:27:43;5.00;;;2.13;;
74972;SDS011;63529;56.320;43.990;2022-11-20T00:30:09;6.38;;;2.20;;
74972;SDS011;63529;56.320;43.990;2022-11-20T00:32:35;6.60;;;2.40;;
74972;SDS011;63529;56.320;43.990;2022-11-20T00:35:00;4.95;;;1.95;;
74972;SDS011;63529;56.320;43.990;2022-11-20T00:37:28;2.83;;;1.27;;
74972;SDS011;63529;56.320;43.990;2022-11-20T00:39:54;2.20;;;1.27;;
74972;SDS011;63529;56.320;43.990;2022-11-20T00:42:20;6.85;;;2.65;;
74972;SDS011;63529;56.320;43.990;2022-11-20T00:44:46;4.95;;;1.60;;
74972;SDS011;63529;56.320;43.990;2022-11-20T00:47:12;5.25;;;2.38;;
74972;SDS011;63529;56.320;43.990;2022-11-20T00:49:38;6.10;;;2.22;;
74972;SDS011;63529;56.320;43.990;2022-11-20T00:52:04;6.72;;;2.55;;
74972;SDS011;63529;56.320;43.990;2022-11-20T00:54:30;6.07;;;1.85;;
74972;SDS011;63529;56.320;43.990;2022-11-20T00:56:56;7.40;;;2.53;;
74972;SDS011;63529;56.320;43.990;2022-11-20T00:59:22;8.43;;;2.88;;
74972;SDS011;63529;56.320;43.990;2022-11-20T01:01:48;3.92;;;1.80;;
74972;SDS011;63529;56.320;43.990;2022-11-20T01:04:14;4.95;;;2.08;;
74972;SDS011;63529;56.320;43.990;2022-11-20T01:06:39;7.82;;;2.70;;
74972;SDS011;63529;56.320;43.990;2022-11-20T01:09:06;4.38;;;1.55;;
74972;SDS011;63529;56.320;43.990;2022-11-20T01:11:36;5.28;;;2.45;;
74972;SDS011;63529;56.320;43.990;2022-11-20T01:14:05;7.20;;;2.40;;
74972;SDS011;63529;56.320;43.990;2022-11-20T01:16:33;4.85;;;1.73;;
74972;SDS011;63529;56.320;43.990;2022-11-20T01:19:02;3.63;;;1.48;;
74972;SDS011;63529;56.320;43.990;2022-11-20T01:21:31;4.03;;;1.75;;
74972;SDS011;63529;56.320;43.990;2022-11-20T01:23:59;3.80;;;1.70;;
74972;SDS011;63529;56.320;43.990;2022-11-20T01:26:27;4.63;;;1.50;;
74972;SDS011;63529;56.320;43.990;2022-11-20T01:28:55;8.77;;;2.38;;
74972;SDS011;63529;56.320;43.990;2022-11-20T01:31:32;7.53;;;2.58;;
74972;SDS011;63529;56.320;43.990;2022-11-20T01:34:00;4.13;;;1.90;;
74972;SDS011;63529;56.320;43.990;2022-11-20T01:36:29;2.25;;;1.33;;
74972;SDS011;63529;56.320;43.990;2022-11-20T01:38:57;4.72;;;1.70;;
74972;SDS011;63529;56.320;43.990;2022-11-20T01:41:26;4.93;;;1.70;;
74972;SDS011;63529;56.320;43.990;2022-11-20T01:44:13;5.15;;;1.67;;
74972;SDS011;63529;56.320;43.990;2022-11-20T01:46:59;7.68;;;2.70;;
74972;SDS011;63529;56.320;43.990;2022-11-20T01:49:32;5.38;;;2.33;;
74972;SDS011;63529;56.320;43.990;2022-11-20T01:52:05;7.18;;;2.70;;
74972;SDS011;63529;56.320;43.990;2022-11-20T01:54:39;2.60;;;1.33;;
74972;SDS011;63529;56.320;43.990;2022-11-20T01:57:14;7.57;;;2.50;;
74972;SDS011;63529;56.320;43.990;2022-11-20T01:59:44;10.07;;;3.03;;
74972;SDS011;63529;56.320;43.990;2022-11-20T02:02:19;7.55;;;2.92;;
74972;SDS011;63529;56.320;43.990;2022-11-20T02:04:46;4.93;;;2.00;;
74972;SDS011;63529;56.320;43.990;2022-11-20T02:07:14;5.55;;;2.30;;
74972;SDS011;63529;56.320;43.990;2022-11-20T02:09:43;4.30;;;1.65;;
74972;SDS011;63529;56.320;43.990;2022-11-20T02:12:09;4.10;;;1.83;;
74972;SDS011;63529;56.320;43.990;2022-11-20T02:14:55;5.50;;;1.83;;
74972;SDS011;63529;56.320;43.990;2022-11-20T02:17:22;6.53;;;2.33;;
74972;SDS011;63529;56.320;43.990;2022-11-20T02:19:49;2.90;;;1.20;;
74972;SDS011;63529;56.320;43.990;2022-11-20T02:22:35;6.40;;;2.30;;
74972;SDS011;63529;56.320;43.990;2022-11-20T02:25:10;7.10;;;2.47;;
74972;SDS011;63529;56.320;43.990;2022-11-20T02:27:38;3.80;;;1.20;;
74972;SDS011;63529;56.320;43.990;2022-11-20T02:30:04;6.55;;;1.67;;
74972;SDS011;63529;56.320;43.990;2022-11-20T02:32:36;5.00;;;1.55;;
74972;SDS011;63529;56.320;43.990;2022-11-20T02:35:07;4.18;;;1.55;;
74972;SDS011;63529;56.320;43.990;2022-11-20T02:37:36;4.55;;;1.88;;
74972;SDS011;63529;56.320;43.990;2022-11-20T02:40:05;2.97;;;1.20;;
74972;SDS011;63529;56.320;43.990;2022-11-20T02:42:32;3.33;;;1.30;;
74972;SDS011;63529;56.320;43.990;2022-11-20T02:44:58;1.60;;;1.00;;
74972;SDS011;63529;56.320;43.990;2022-11-20T02:47:23;4.15;;;1.65;;
74972;SDS011;63529;56.320;43.990;2022-11-20T02:49:49;2.88;;;1.52;;
74972;SDS011;63529;56.320;43.990;2022-11-20T02:52:15;5.30;;;1.52;;
74972;SDS011;63529;56.320;43.990;2022-11-20T02:54:41;6.13;;;1.90;;
74972;SDS011;63529;56.320;43.990;2022-11-20T02:57:07;6.95;;;1.90;;
74972;SDS011;63529;56.320;43.990;2022-11-20T02:59:33;7.65;;;2.45;;
74972;SDS011;63529;56.320;43.990;2022-11-20T03:01:59;3.95;;;1.42;;
74972;SDS011;63529;56.320;43.990;2022-11-20T03:04:24;3.30;;;1.63;;
74972;SDS011;63529;56.320;43.990;2022-11-20T03:06:50;5.13;;;1.45;;
74972;SDS011;63529;56.320;43.990;2022-11-20T03:09:16;2.45;;;1.25;;
74972;SDS011;63529;56.320;43.990;2022-11-20T03:11:42;5.32;;;1.63;;
74972;SDS011;63529;56.320;43.990;2022-11-20T03:14:08;7.43;;;2.40;;
74972;SDS011;63529;56.320;43.990;2022-11-20T03:16:34;4.97;;;1.52;;
74972;SDS011;63529;56.320;43.990;2022-11-20T03:19:00;3.28;;;1.98;;
74972;SDS011;63529;56.320;43.990;2022-11-20T03:21:26;4.85;;;2.00;;
74972;SDS011;63529;56.320;43.990;2022-11-20T03:23:52;6.97;;;2.17;;
74972;SDS011;63529;56.320;43.990;2022-11-20T03:26:23;2.25;;;1.40;;
74972;SDS011;63529;56.320;43.990;2022-11-20T03:28:51;4.30;;;1.38;;
74972;SDS011;63529;56.320;43.990;2022-11-20T03:31:20;5.15;;;1.92;;
74972;SDS011;63529;56.320;43.990;2022-11-20T03:33:47;9.90;;;2.28;;
74972;SDS011;63529;56.320;43.990;2022-11-20T03:36:14;4.32;;;1.58;;
74972;SDS011;63529;56.320;43.990;2022-11-20T03:38:40;2.15;;;1.02;;
74972;SDS011;63529;56.320;43.990;2022-11-20T03:41:07;5.10;;;1.70;;
74972;SDS011;63529;56.320;43.990;2022-11-20T03:43:35;4.18;;;2.00;;
74972;SDS011;63529;56.320;43.990;2022-11-20T03:46:02;5.57;;;2.10;;
74972;SDS011;63529;56.320;43.990;2022-11-20T03:48:28;4.13;;;2.22;;
74972;SDS011;63529;56.320;43.990;2022-11-20T03:51:16;3.47;;;1.75;;
74972;SDS011;63529;56.320;43.990;2022-11-20T03:53:45;2.38;;;1.17;;
74972;SDS011;63529;56.320;43.990;2022-11-20T03:56:12;7.85;;;2.15;;
74972;SDS011;63529;56.320;43.990;2022-11-20T03:58:39;3.35;;;1.40;;
74972;SDS011;63529;56.320;43.990;2022-11-20T04:01:11;3.95;;;1.67;;
74972;SDS011;63529;56.320;43.990;2022-11-20T04:03:42;8.52;;;2.35;;
74972;SDS011;63529;56.320;43.990;2022-11-20T04:06:10;1.75;;;0.88;;
74972;SDS011;63529;56.320;43.990;2022-11-20T04:08:38;4.38;;;1.67;;
74972;SDS011;63529;56.320;43.990;2022-11-20T04:11:08;5.53;;;2.30;;
74972;SDS011;63529;56.320;43.990;2022-11-20T04:13:36;5.30;;;1.63;;
74972;SDS011;63529;56.320;43.990;2022-11-20T04:16:02;3.33;;;1.27;;
74972;SDS011;63529;56.320;43.990;2022-11-20T04:18:28;4.88;;;2.22;;
74972;SDS011;63529;56.320;43.990;2022-11-20T04:20:56;6.97;;;2.20;;
74972;SDS011;63529;56.320;43.990;2022-11-20T04:23:22;5.47;;;2.20;;
74972;SDS011;63529;56.320;43.990;2022-11-20T04:25:48;8.52;;;2.50;;
74972;SDS011;63529;56.320;43.990;2022-11-20T04:28:14;6.00;;;2.42;;
74972;SDS011;63529;56.320;43.990;2022-11-20T04:30:40;6.10;;;2.55;;
74972;SDS011;63529;56.320;43.990;2022-11-20T04:33:06;4.82;;;1.42;;
74972;SDS011;63529;56.320;43.990;2022-11-20T04:35:36;8.18;;;2.67;;
74972;SDS011;63529;56.320;43.990;2022-11-20T04:38:03;4.63;;;1.80;;
74972;SDS011;63529;56.320;43.990;2022-11-20T04:40:29;7.90;;;2.50;;
74972;SDS011;63529;56.320;43.990;2022-11-20T04:42:57;6.45;;;1.52;;
74972;SDS011;63529;56.320;43.990;2022-11-20T04:45:23;5.00;;;2.30;;
74972;SDS011;63529;56.320;43.990;2022-11-20T04:47:49;5.70;;;2.05;;
74972;SDS011;63529;56.320;43.990;2022-11-20T04:50:15;5.78;;;2.13;;
74972;SDS011;63529;56.320;43.990;2022-11-20T04:52:41;5.53;;;1.83;;
74972;SDS011;63529;56.320;43.990;2022-11-20T04:55:07;6.32;;;2.20;;
74972;SDS011;63529;56.320;43.990;2022-11-20T04:57:33;6.72;;;2.38;;
74972;SDS011;63529;56.320;43.990;2022-11-20T04:59:58;6.57;;;2.47;;
74972;SDS011;63529;56.320;43.990;2022-11-20T05:02:24;8.52;;;1.98;;
74972;SDS011;63529;56.320;43.990;2022-11-20T05:04:50;2.97;;;1.33;;
74972;SDS011;63529;56.320;43.990;2022-11-20T05:07:16;2.95;;;1.67;;
74972;SDS011;63529;56.320;43.990;2022-11-20T05:09:42;6.90;;;1.90;;
74972;SDS011;63529;56.320;43.990;2022-11-20T05:12:08;4.82;;;1.77;;
74972;SDS011;63529;56.320;43.990;2022-11-20T05:14:34;3.85;;;1.60;;
74972;SDS011;63529;56.320;43.990;2022-11-20T05:17:00;7.03;;;1.73;;
74972;SDS011;63529;56.320;43.990;2022-11-20T05:19:26;5.07;;;1.70;;
74972;SDS011;63529;56.320;43.990;2022-11-20T05:21:52;7.07;;;2.65;;
74972;SDS011;63529;56.320;43.990;2022-11-20T05:24:18;9.05;;;2.70;;
74972;SDS011;63529;56.320;43.990;2022-11-20T05:26:44;3.67;;;1.70;;
74972;SDS011;63529;56.320;43.990;2022-11-20T05:29:10;1.88;;;0.93;;
74972;SDS011;63529;56.320;43.990;2022-11-20T05:31:38;9.70;;;2.42;;
74972;SDS011;63529;56.320;43.990;2022-11-20T05:34:04;6.03;;;2.05;;
74972;SDS011;63529;56.320;43.990;2022-11-20T05:36:30;3.40;;;1.65;;
74972;SDS011;63529;56.320;43.990;2022-11-20T05:38:57;8.82;;;2.85;;
74972;SDS011;63529;56.320;43.990;2022-11-20T05:41:23;5.20;;;1.50;;
74972;SDS011;63529;56.320;43.990;2022-11-20T05:43:49;3.25;;;2.10;;
74972;SDS011;63529;56.320;43.990;2022-11-20T05:46:17;4.05;;;1.85;;
74972;SDS011;63529;56.320;43.990;2022-11-20T05:48:45;8.15;;;3.05;;
74972;SDS011;63529;56.320;43.990;2022-11-20T05:51:13;4.65;;;1.73;;
74972;SDS011;63529;56.320;43.990;2022-11-20T05:53:41;7.72;;;2.63;;
74972;SDS011;63529;56.320;43.990;2022-11-20T05:56:09;7.07;;;2.75;;
74972;SDS011;63529;56.320;43.990;2022-11-20T05:58:37;3.40;;;1.48;;
74972;SDS011;63529;56.320;43.990;2022-11-20T06:01:07;3.97;;;1.80;;
74972;SDS011;63529;56.320;43.990;2022-11-20T06:03:33;5.43;;;2.10;;
74972;SDS011;63529;56.320;43.990;2022-11-20T06:06:00;11.18;;;2.55;;
74972;SDS011;63529;56.320;43.990;2022-11-20T06:08:27;3.90;;;1.95;;
74972;SDS011;63529;56.320;43.990;2022-11-20T06:10:53;9.13;;;2.80;;
74972;SDS011;63529;56.320;43.990;2022-11-20T06:13:19;7.47;;;2.28;;
74972;SDS011;63529;56.320;43.990;2022-11-20T06:15:49;5.90;;;2.53;;
74972;SDS011;63529;56.320;43.990;2022-11-20T06:18:15;7.18;;;1.85;;
74972;SDS011;63529;56.320;43.990;2022-11-20T06:20:41;9.73;;;3.17;;
74972;SDS011;63529;56.320;43.990;2022-11-20T06:23:07;9.10;;;3.10;;
74972;SDS011;63529;56.320;43.990;2022-11-20T06:25:33;7.28;;;2.90;;
74972;SDS011;63529;56.320;43.990;2022-11-20T06:28:03;6.50;;;2.47;;
74972;SDS011;63529;56.320;43.990;2022-11-20T06:30:29;4.82;;;1.80;;
74972;SDS011;63529;56.320;43.990;2022-11-20T06:32:55;3.70;;;1.73;;
74972;SDS011;63529;56.320;43.990;2022-11-20T06:35:21;6.22;;;2.65;;
74972;SDS011;63529;56.320;43.990;2022-11-20T06:37:47;5.32;;;2.08;;
74972;SDS011;63529;56.320;43.990;2022-11-20T06:40:13;7.05;;;2.75;;
74972;SDS011;63529;56.320;43.990;2022-11-20T06:42:39;5.60;;;2.05;;
74972;SDS011;63529;56.320;43.990;2022-11-20T06:45:05;6.70;;;2.55;;
74972;SDS011;63529;56.320;43.990;2022-11-20T06:47:31;2.85;;;0.93;;
74972;SDS011;63529;56.320;43.990;2022-11-20T06:49:57;4.90;;;1.75;;
74972;SDS011;63529;56.320;43.990;2022-11-20T06:52:23;5.18;;;1.83;;
74972;SDS011;63529;56.320;43.990;2022-11-20T06:54:49;6.78;;;2.80;;
74972;SDS011;63529;56.320;43.990;2022-11-20T06:57:14;5.90;;;2.80;;
74972;SDS011;63529;56.320;43.990;2022-11-20T06:59:40;9.30;;;3.75;;
74972;SDS011;63529;56.320;43.990;2022-11-20T07:02:09;10.77;;;3.05;;
74972;SDS011;63529;56.320;43.990;2022-11-20T07:04:36;2.40;;;1.38;;
74972;SDS011;63529;56.320;43.990;2022-11-20T07:07:02;6.35;;;2.33;;
74972;SDS011;63529;56.320;43.990;2022-11-20T07:09:28;5.97;;;2.28;;
74972;SDS011;63529;56.320;43.990;2022-11-20T07:11:54;8.27;;;3.13;;
74972;SDS011;63529;56.320;43.990;2022-11-20T07:14:20;10.52;;;2.97;;
74972;SDS011;63529;56.320;43.990;2022-11-20T07:16:46;6.60;;;2.50;;
74972;SDS011;63529;56.320;43.990;2022-11-20T07:19:12;12.23;;;3.65;;
74972;SDS011;63529;56.320;43.990;2022-11-20T07:21:38;8.00;;;2.47;;
74972;SDS011;63529;56.320;43.990;2022-11-20T07:24:03;10.80;;;3.83;;
74972;SDS011;63529;56.320;43.990;2022-11-20T07:26:29;9.60;;;3.03;;
74972;SDS011;63529;56.320;43.990;2022-11-20T07:28:55;12.02;;;3.38;;
74972;SDS011;63529;56.320;43.990;2022-11-20T07:31:21;8.00;;;2.88;;
74972;SDS011;63529;56.320;43.990;2022-11-20T07:33:47;5.85;;;2.40;;
74972;SDS011;63529;56.320;43.990;2022-11-20T07:36:13;8.25;;;3.53;;
74972;SDS011;63529;56.320;43.990;2022-11-20T07:38:39;8.57;;;2.90;;
74972;SDS011;63529;56.320;43.990;2022-11-20T07:41:05;6.25;;;2.55;;
74972;SDS011;63529;56.320;43.990;2022-11-20T07:43:31;10.68;;;3.03;;
74972;SDS011;63529;56.320;43.990;2022-11-20T07:45:57;8.48;;;3.33;;
74972;SDS011;63529;56.320;43.990;2022-11-20T07:48:24;9.82;;;3.42;;
74972;SDS011;63529;56.320;43.990;2022-11-20T07:50:54;10.27;;;3.35;;
74972;SDS011;63529;56.320;43.990;2022-11-20T07:53:21;10.65;;;3.33;;
74972;SDS011;63529;56.320;43.990;2022-11-20T07:55:48;8.52;;;3.17;;
74972;SDS011;63529;56.320;43.990;2022-11-20T07:58:14;10.38;;;2.97;;
74972;SDS011;63529;56.320;43.990;2022-11-20T08:00:40;8.63;;;3.28;;
74972;SDS011;63529;56.320;43.990;2022-11-20T08:03:06;14.95;;;3.72;;
74972;SDS011;63529;56.320;43.990;2022-11-20T08:05:32;8.77;;;3.00;;
74972;SDS011;63529;56.320;43.990;2022-11-20T08:07:59;12.18;;;3.42;;
74972;SDS011;63529;56.320;43.990;2022-11-20T08:10:25;10.70;;;3.42;;
74972;SDS011;63529;56.320;43.990;2022-11-20T08:12:51;6.90;;;3.15;;
74972;SDS011;63529;56.320;43.990;2022-11-20T08:15:37;11.65;;;3.75;;
74972;SDS011;63529;56.320;43.990;2022-11-20T08:18:06;10.05;;;3.50;;
74972;SDS011;63529;56.320;43.990;2022-11-20T08:20:36;9.70;;;3.47;;
74972;SDS011;63529;56.320;43.990;2022-11-20T08:23:04;9.68;;;3.17;;
74972;SDS011;63529;56.320;43.990;2022-11-20T08:25:33;9.40;;;2.83;;
74972;SDS011;63529;56.320;43.990;2022-11-20T08:28:00;9.80;;;3.08;;
74972;SDS011;63529;56.320;43.990;2022-11-20T08:30:28;10.88;;;3.25;;
74972;SDS011;63529;56.320;43.990;2022-11-20T08:32:55;7.40;;;2.45;;
74972;SDS011;63529;56.320;43.990;2022-11-20T08:35:36;7.85;;;2.72;;
74972;SDS011;63529;56.320;43.990;2022-11-20T08:38:04;9.57;;;3.17;;
74972;SDS011;63529;56.320;43.990;2022-11-20T08:40:31;11.30;;;3.30;;
74972;SDS011;63529;56.320;43.990;2022-11-20T08:42:57;6.28;;;2.55;;
74972;SDS011;63529;56.320;43.990;2022-11-20T08:45:23;9.52;;;2.97;;
74972;SDS011;63529;56.320;43.990;2022-11-20T08:47:49;7.75;;;3.08;;
74972;SDS011;63529;56.320;43.990;2022-11-20T08:50:16;10.95;;;3.88;;
74972;SDS011;63529;56.320;43.990;2022-11-20T08:52:43;9.98;;;3.95;;
74972;SDS011;63529;56.320;43.990;2022-11-20T08:55:09;13.32;;;3.42;;
74972;SDS011;63529;56.320;43.990;2022-11-20T08:57:36;9.10;;;3.42;;
74972;SDS011;63529;56.320;43.990;2022-11-20T09:00:03;10.40;;;4.03;;
74972;SDS011;63529;56.320;43.990;2022-11-20T09:02:31;11.85;;;4.15;;
74972;SDS011;63529;56.320;43.990;2022-11-20T09:04:57;9.88;;;4.15;;
74972;SDS011;63529;56.320;43.990;2022-11-20T09:07:23;12.55;;;3.67;;
74972;SDS011;63529;56.320;43.990;2022-11-20T09:09:49;12.07;;;4.22;;
74972;SDS011;63529;56.320;43.990;2022-11-20T09:12:15;8.68;;;3.25;;
74972;SDS011;63529;56.320;43.990;2022-11-20T09:14:41;8.10;;;3.70;;
74972;SDS011;63529;56.320;43.990;2022-11-20T09:17:09;10.93;;;3.92;;
74972;SDS011;63529;56.320;43.990;2022-11-20T09:19:37;9.02;;;3.33;;
74972;SDS011;63529;56.320;43.990;2022-11-20T09:22:03;9.18;;;3.60;;
74972;SDS011;63529;56.320;43.990;2022-11-20T09:24:29;11.15;;;3.72;;
74972;SDS011;63529;56.320;43.990;2022-11-20T09:26:55;12.27;;;3.97;;
74972;SDS011;63529;56.320;43.990;2022-11-20T09:29:21;13.05;;;4.07;;
74972;SDS011;63529;56.320;43.990;2022-11-20T09:31:47;9.95;;;3.67;;
74972;SDS011;63529;56.320;43.990;2022-11-20T09:34:13;12.93;;;4.07;;
74972;SDS011;63529;56.320;43.990;2022-11-20T09:36:39;8.93;;;4.03;;
74972;SDS011;63529;56.320;43.990;2022-11-20T09:39:05;9.52;;;3.47;;
74972;SDS011;63529;56.320;43.990;2022-11-20T09:50:14;9.80;;;3.55;;
74972;SDS011;63529;56.320;43.990;2022-11-20T09:53:13;13.52;;;4.80;;
74972;SDS011;63529;56.320;43.990;2022-11-20T09:55:57;10.30;;;4.10;;
74972;SDS011;63529;56.320;43.990;2022-11-20T09:58:29;9.68;;;4.22;;
74972;SDS011;63529;56.320;43.990;2022-11-20T10:01:12;11.50;;;4.30;;
74972;SDS011;63529;56.320;43.990;2022-11-20T10:04:13;10.90;;;3.75;;
74972;SDS011;63529;56.320;43.990;2022-11-20T10:09:38;7.72;;;3.13;;
74972;SDS011;63529;56.320;43.990;2022-11-20T10:12:12;11.63;;;3.83;;
74972;SDS011;63529;56.320;43.990;2022-11-20T10:26:06;11.95;;;3.75;;
74972;SDS011;63529;56.320;43.990;2022-11-20T10:29:11;7.85;;;2.72;;
74972;SDS011;63529;56.320;43.990;2022-11-20T10:31:40;14.15;;;3.72;;
74972;SDS011;63529;56.320;43.990;2022-11-20T10:42:49;10.15;;;4.03;;
74972;SDS011;63529;56.320;43.990;2022-11-20T10:47:52;11.25;;;4.03;;
74972;SDS011;63529;56.320;43.990;2022-11-20T10:50:22;10.40;;;3.47;;
74972;SDS011;63529;56.320;43.990;2022-11-20T10:55:58;8.88;;;3.80;;
74972;SDS011;63529;56.320;43.990;2022-11-20T11:01:19;12.88;;;4.85;;
74972;SDS011;63529;56.320;43.990;2022-11-20T11:03:50;14.40;;;4.97;;
74972;SDS011;63529;56.320;43.990;2022-11-20T11:08:49;10.73;;;3.35;;
74972;SDS011;63529;56.320;43.990;2022-11-20T11:11:32;7.22;;;3.28;;
74972;SDS011;63529;56.320;43.990;2022-11-20T11:14:12;13.15;;;3.38;;
74972;SDS011;63529;56.320;43.990;2022-11-20T11:16:50;10.35;;;3.85;;
74972;SDS011;63529;56.320;43.990;2022-11-20T11:19:17;7.55;;;2.83;;
74972;SDS011;63529;56.320;43.990;2022-11-20T11:21:47;9.05;;;3.67;;
74972;SDS011;63529;56.320;43.990;2022-11-20T11:24:23;11.43;;;3.28;;
74972;SDS011;63529;56.320;43.990;2022-11-20T11:26:52;11.02;;;4.05;;
74972;SDS011;63529;56.320;43.990;2022-11-20T11:29:32;7.60;;;2.50;;
74972;SDS011;63529;56.320;43.990;2022-11-20T11:32:05;12.65;;;4.05;;
74972;SDS011;63529;56.320;43.990;2022-11-20T11:34:34;16.65;;;4.38;;
74972;SDS011;63529;56.320;43.990;2022-11-20T11:37:00;13.35;;;4.82;;
74972;SDS011;63529;56.320;43.990;2022-11-20T11:39:29;8.50;;;2.97;;
74972;SDS011;63529;56.320;43.990;2022-11-20T11:41:58;9.82;;;3.63;;
74972;SDS011;63529;56.320;43.990;2022-11-20T11:44:30;6.70;;;2.90;;
74972;SDS011;63529;56.320;43.990;2022-11-20T11:47:21;9.05;;;2.97;;
74972;SDS011;63529;56.320;43.990;2022-11-20T12:01:04;7.50;;;3.58;;
74972;SDS011;63529;56.320;43.990;2022-11-20T12:06:51;12.75;;;2.95;;
74972;SDS011;63529;56.320;43.990;2022-11-20T12:09:37;11.77;;;3.78;;
74972;SDS011;63529;56.320;43.990;2022-11-20T12:12:10;11.18;;;3.72;;
74972;SDS011;63529;56.320;43.990;2022-11-20T12:14:45;13.30;;;4.32;;
74972;SDS011;63529;56.320;43.990;2022-11-20T12:17:14;13.88;;;4.00;;
74972;SDS011;63529;56.320;43.990;2022-11-20T12:19:40;11.35;;;3.92;;
74972;SDS011;63529;56.320;43.990;2022-11-20T12:24:51;10.30;;;3.60;;
74972;SDS011;63529;56.320;43.990;2022-11-20T12:30:16;9.90;;;3.92;;
74972;SDS011;63529;56.320;43.990;2022-11-20T12:39:27;10.65;;;4.05;;
74972;SDS011;63529;56.320;43.990;2022-11-20T12:53:27;13.02;;;4.30;;
74972;SDS011;63529;56.320;43.990;2022-11-20T13:07:05;7.97;;;3.42;;
74972;SDS011;63529;56.320;43.990;2022-11-20T13:09:34;11.02;;;4.13;;
74972;SDS011;63529;56.320;43.990;2022-11-20T13:12:09;10.57;;;3.95;;
74972;SDS011;63529;56.320;43.990;2022-11-20T13:17:37;11.80;;;4.22;;
74972;SDS011;63529;56.320;43.990;2022-11-20T13:20:15;13.30;;;4.15;;
74972;SDS011;63529;56.320;43.990;2022-11-20T13:22:50;15.23;;;4.55;;
74972;SDS011;63529;56.320;43.990;2022-11-20T13:25:31;13.65;;;4.07;;
74972;SDS011;63529;56.320;43.990;2022-11-20T13:28:24;10.13;;;4.00;;
74972;SDS011;63529;56.320;43.990;2022-11-20T13:30:55;11.35;;;3.83;;
74972;SDS011;63529;56.320;43.990;2022-11-20T13:33:32;12.57;;;4.15;;
74972;SDS011;63529;56.320;43.990;2022-11-20T13:36:01;12.20;;;4.15;;
74972;SDS011;63529;56.320;43.990;2022-11-20T13:38:46;12.77;;;3.92;;
74972;SDS011;63529;56.320;43.990;2022-11-20T13:41:30;9.93;;;4.18;;
74972;SDS011;63529;56.320;43.990;2022-11-20T13:46:35;10.40;;;3.83;;
74972;SDS011;63529;56.320;43.990;2022-11-20T13:49:08;10.95;;;4.13;;
74972;SDS011;63529;56.320;43.990;2022-11-20T14:00:20;12.02;;;4.10;;
74972;SDS011;63529;56.320;43.990;2022-11-20T14:03:12;12.02;;;4.50;;
74972;SDS011;63529;56.320;43.990;2022-11-20T14:05:45;13.82;;;4.25;;
74972;SDS011;63529;56.320;43.990;2022-11-20T14:08:27;13.00;;;4.78;;
74972;SDS011;63529;56.320;43.990;2022-11-20T14:11:16;8.63;;;3.65;;
74972;SDS011;63529;56.320;43.990;2022-11-20T14:16:31;12.05;;;4.55;;
74972;SDS011;63529;56.320;43.990;2022-11-20T14:21:47;10.82;;;4.53;;
74972;SDS011;63529;56.320;43.990;2022-11-20T14:24:19;11.85;;;4.75;;
74972;SDS011;63529;56.320;43.990;2022-11-20T14:26:49;11.65;;;4.75;;
74972;SDS011;63529;56.320;43.990;2022-11-20T14:29:26;11.35;;;5.00;;
74972;SDS011;63529;56.320;43.990;2022-11-20T14:31:55;10.82;;;4.43;;
74972;SDS011;63529;56.320;43.990;2022-11-20T14:34:26;15.32;;;4.68;;
74972;SDS011;63529;56.320;43.990;2022-11-20T14:37:01;11.82;;;5.55;;
74972;SDS011;63529;56.320;43.990;2022-11-20T14:39:42;15.13;;;6.03;;
74972;SDS011;63529;56.320;43.990;2022-11-20T14:42:17;13.75;;;4.95;;
74972;SDS011;63529;56.320;43.990;2022-11-20T14:44:45;12.82;;;5.13;;
74972;SDS011;63529;56.320;43.990;2022-11-20T14:47:16;14.27;;;5.95;;
74972;SDS011;63529;56.320;43.990;2022-11-20T14:49:44;11.43;;;4.65;;
74972;SDS011;63529;56.320;43.990;2022-11-20T14:54:50;16.20;;;5.07;;
74972;SDS011;63529;56.320;43.990;2022-11-20T14:57:34;12.95;;;5.20;;
74972;SDS011;63529;56.320;43.990;2022-11-20T15:00:18;12.95;;;5.32;;
74972;SDS011;63529;56.320;43.990;2022-11-20T15:02:47;13.07;;;4.90;;
74972;SDS011;63529;56.320;43.990;2022-11-20T15:05:15;12.60;;;4.88;;
74972;SDS011;63529;56.320;43.990;2022-11-20T15:07:47;12.07;;;5.00;;
74972;SDS011;63529;56.320;43.990;2022-11-20T15:10:23;15.27;;;5.57;;
74972;SDS011;63529;56.320;43.990;2022-11-20T15:12:51;13.32;;;4.75;;
74972;SDS011;63529;56.320;43.990;2022-11-20T15:15:30;11.90;;;4.30;;
74972;SDS011;63529;56.320;43.990;2022-11-20T15:18:13;7.53;;;3.28;;
74972;SDS011;63529;56.320;43.990;2022-11-20T15:20:42;12.05;;;4.35;;
74972;SDS011;63529;56.320;43.990;2022-11-20T15:23:10;9.35;;;4.03;;
74972;SDS011;63529;56.320;43.990;2022-11-20T15:25:38;7.95;;;3.50;;
74972;SDS011;63529;56.320;43.990;2022-11-20T15:28:09;9.45;;;2.75;;
74972;SDS011;63529;56.320;43.990;2022-11-20T15:30:48;14.23;;;4.32;;
74972;SDS011;63529;56.320;43.990;2022-11-20T15:33:15;9.07;;;3.80;;
74972;SDS011;63529;56.320;43.990;2022-11-20T15:35:42;10.63;;;3.47;;
74972;SDS011;63529;56.320;43.990;2022-11-20T15:38:08;11.20;;;3.42;;
74972;SDS011;63529;56.320;43.990;2022-11-20T15:40:35;13.30;;;4.32;;
74972;SDS011;63529;56.320;43.990;2022-11-20T15:43:01;12.63;;;3.92;;
74972;SDS011;63529;56.320;43.990;2022-11-20T15:45:31;7.15;;;3.30;;
74972;SDS011;63529;56.320;43.990;2022-11-20T15:48:14;8.65;;;4.03;;
74972;SDS011;63529;56.320;43.990;2022-11-20T15:50:46;5.10;;;2.63;;
74972;SDS011;63529;56.320;43.990;2022-11-20T15:53:18;9.38;;;3.63;;
74972;SDS011;63529;56.320;43.990;2022-11-20T15:55:44;8.55;;;2.72;;
74972;SDS011;63529;56.320;43.990;2022-11-20T15:58:10;12.43;;;3.47;;
74972;SDS011;63529;56.320;43.990;2022-11-20T16:00:36;6.32;;;2.97;;
74972;SDS011;63529;56.320;43.990;2022-11-20T16:03:02;7.75;;;3.17;;
74972;SDS011;63529;56.320;43.990;2022-11-20T16:05:28;7.72;;;3.00;;
74972;SDS011;63529;56.320;43.990;2022-11-20T16:07:55;10.23;;;3.53;;
74972;SDS011;63529;56.320;43.990;2022-11-20T16:10:21;12.40;;;4.15;;
74972;SDS011;63529;56.320;43.990;2022-11-20T16:12:47;11.32;;;3.67;;
74972;SDS011;63529;56.320;43.990;2022-11-20T16:15:32;9.32;;;3.42;;
74972;SDS011;63529;56.320;43.990;2022-11-20T16:18:11;9.60;;;3.38;;
74972;SDS011;63529;56.320;43.990;2022-11-20T16:20:38;12.95;;;3.90;;
74972;SDS011;63529;56.320;43.990;2022-11-20T16:23:05;10.82;;;4.20;;
74972;SDS011;63529;56.320;43.990;2022-11-20T16:25:32;9.32;;;3.88;;
74972;SDS011;63529;56.320;43.990;2022-11-20T16:27:58;11.43;;;3.58;;
74972;SDS011;63529;56.320;43.990;2022-11-20T16:30:24;10.40;;;3.95;;
74972;SDS011;63529;56.320;43.990;2022-11-20T16:32:50;11.07;;;4.15;;
74972;SDS011;63529;56.320;43.990;2022-11-20T16:35:16;11.88;;;3.67;;
74972;SDS011;63529;56.320;43.990;2022-11-20T16:37:42;15.30;;;4.70;;